sensor_id;sensor_type;location;lat;lon;timestamp;P1;durP1;ratioP1;P2;durP2;ratioP2
70549;SDS011;58101;48.658;2.328;2023-11-21T00:01:58;10.68;;;2.10;;
70549;SDS011;58101;48.658;2.328;2023-11-21T00:04:24;12.32;;;2.45;;
70549;SDS011;58101;48.658;2.328;2023-11-21T00:06:50;9.13;;;2.53;;
70549;SDS011;58101;48.658;2.328;2023-11-21T00:09:16;9.02;;;2.25;;
70549;SDS011;58101;48.658;2.328;2023-11-21T00:11:42;11.50;;;2.50;;
70549;SDS011;58101;48.658;2.328;2023-11-21T00:14:09;8.68;;;2.20;;
70549;SDS011;58101;48.658;2.328;2023-11-21T00:16:36;6.82;;;2.42;;
70549;SDS011;58101;48.658;2.328;2023-11-21T00:19:01;9.07;;;2.30;;
70549;SDS011;58101;48.658;2.328;2023-11-21T00:21:27;10.10;;;2.28;;
70549;SDS011;58101;48.658;2.328;2023-11-21T00:23:53;6.95;;;1.95;;
70549;SDS011;58101;48.658;2.328;2023-11-21T00:26:18;11.65;;;2.22;;
70549;SDS011;58101;48.658;2.328;2023-11-21T00:28:44;11.65;;;3.28;;
70549;SDS011;58101;48.658;2.328;2023-11-21T00:31:10;8.18;;;2.30;;
70549;SDS011;58101;48.658;2.328;2023-11-21T00:33:36;6.93;;;2.20;;
70549;SDS011;58101;48.658;2.328;2023-11-21T00:36:01;10.45;;;2.28;;
70549;SDS011;58101;48.658;2.328;2023-11-21T00:38:27;11.20;;;2.35;;
70549;SDS011;58101;48.658;2.328;2023-11-21T00:40:53;8.63;;;2.20;;
70549;SDS011;58101;48.658;2.328;2023-11-21T00:43:22;9.05;;;2.38;;
70549;SDS011;58101;48.658;2.328;2023-11-21T00:48:14;8.63;;;1.90;;
70549;SDS011;58101;48.658;2.328;2023-11-21T00:50:40;10.13;;;2.22;;
70549;SDS011;58101;48.658;2.328;2023-11-21T00:53:05;14.90;;;2.40;;
70549;SDS011;58101;48.658;2.328;2023-11-21T00:55:32;12.73;;;3.00;;
70549;SDS011;58101;48.658;2.328;2023-11-21T00:57:58;12.60;;;2.65;;
70549;SDS011;58101;48.658;2.328;2023-11-21T01:00:24;10.32;;;2.40;;
70549;SDS011;58101;48.658;2.328;2023-11-21T01:02:50;7.20;;;1.92;;
70549;SDS011;58101;48.658;2.328;2023-11-21T01:05:16;9.38;;;2.15;;
70549;SDS011;58101;48.658;2.328;2023-11-21T01:07:42;9.82;;;2.00;;
70549;SDS011;58101;48.658;2.328;2023-11-21T01:10:07;7.60;;;1.95;;
70549;SDS011;58101;48.658;2.328;2023-11-21T01:15:01;8.45;;;2.17;;
70549;SDS011;58101;48.658;2.328;2023-11-21T01:17:27;7.43;;;1.83;;
70549;SDS011;58101;48.658;2.328;2023-11-21T01:19:53;7.60;;;1.90;;
70549;SDS011;58101;48.658;2.328;2023-11-21T01:22:18;7.72;;;2.00;;
70549;SDS011;58101;48.658;2.328;2023-11-21T01:24:50;10.05;;;2.20;;
70549;SDS011;58101;48.658;2.328;2023-11-21T01:27:16;8.40;;;2.45;;
70549;SDS011;58101;48.658;2.328;2023-11-21T01:29:42;6.70;;;1.90;;
70549;SDS011;58101;48.658;2.328;2023-11-21T01:32:07;8.68;;;1.85;;
70549;SDS011;58101;48.658;2.328;2023-11-21T01:34:33;8.95;;;2.00;;
70549;SDS011;58101;48.658;2.328;2023-11-21T01:36:59;6.88;;;1.80;;
70549;SDS011;58101;48.658;2.328;2023-11-21T01:39:24;9.18;;;2.00;;
70549;SDS011;58101;48.658;2.328;2023-11-21T01:41:51;9.80;;;2.20;;
70549;SDS011;58101;48.658;2.328;2023-11-21T01:44:17;9.30;;;2.10;;
70549;SDS011;58101;48.658;2.328;2023-11-21T01:46:44;10.38;;;2.20;;
70549;SDS011;58101;48.658;2.328;2023-11-21T01:49:11;8.02;;;2.00;;
70549;SDS011;58101;48.658;2.328;2023-11-21T01:51:38;6.70;;;1.90;;
70549;SDS011;58101;48.658;2.328;2023-11-21T01:54:05;8.35;;;1.90;;
70549;SDS011;58101;48.658;2.328;2023-11-21T01:56:32;11.10;;;2.08;;
70549;SDS011;58101;48.658;2.328;2023-11-21T01:58:57;11.20;;;1.95;;
70549;SDS011;58101;48.658;2.328;2023-11-21T02:01:23;10.43;;;2.30;;
70549;SDS011;58101;48.658;2.328;2023-11-21T02:03:50;8.23;;;2.10;;
70549;SDS011;58101;48.658;2.328;2023-11-21T02:06:16;8.73;;;1.85;;
70549;SDS011;58101;48.658;2.328;2023-11-21T02:08:43;7.03;;;1.88;;
70549;SDS011;58101;48.658;2.328;2023-11-21T02:11:10;6.80;;;1.80;;
70549;SDS011;58101;48.658;2.328;2023-11-21T02:13:38;6.60;;;1.80;;
70549;SDS011;58101;48.658;2.328;2023-11-21T02:16:08;9.18;;;2.22;;
70549;SDS011;58101;48.658;2.328;2023-11-21T02:18:39;7.97;;;2.20;;
70549;SDS011;58101;48.658;2.328;2023-11-21T02:21:06;6.97;;;2.17;;
70549;SDS011;58101;48.658;2.328;2023-11-21T02:23:32;9.13;;;2.50;;
70549;SDS011;58101;48.658;2.328;2023-11-21T02:25:58;10.15;;;2.72;;
70549;SDS011;58101;48.658;2.328;2023-11-21T02:28:24;11.10;;;3.50;;
70549;SDS011;58101;48.658;2.328;2023-11-21T02:30:53;11.95;;;3.10;;
70549;SDS011;58101;48.658;2.328;2023-11-21T02:33:24;10.52;;;3.22;;
70549;SDS011;58101;48.658;2.328;2023-11-21T02:35:49;10.15;;;2.28;;
70549;SDS011;58101;48.658;2.328;2023-11-21T02:38:19;10.90;;;2.30;;
70549;SDS011;58101;48.658;2.328;2023-11-21T02:40:48;10.00;;;2.72;;
70549;SDS011;58101;48.658;2.328;2023-11-21T02:43:14;10.35;;;2.40;;
70549;SDS011;58101;48.658;2.328;2023-11-21T02:45:39;10.13;;;2.80;;
70549;SDS011;58101;48.658;2.328;2023-11-21T02:50:32;11.07;;;3.15;;
70549;SDS011;58101;48.658;2.328;2023-11-21T02:53:00;10.63;;;3.08;;
70549;SDS011;58101;48.658;2.328;2023-11-21T02:55:26;13.32;;;3.60;;
70549;SDS011;58101;48.658;2.328;2023-11-21T02:57:52;15.85;;;3.67;;
70549;SDS011;58101;48.658;2.328;2023-11-21T03:00:18;12.30;;;2.97;;
70549;SDS011;58101;48.658;2.328;2023-11-21T03:02:44;11.55;;;2.90;;
70549;SDS011;58101;48.658;2.328;2023-11-21T03:05:12;10.48;;;3.03;;
70549;SDS011;58101;48.658;2.328;2023-11-21T03:07:38;12.95;;;2.97;;
70549;SDS011;58101;48.658;2.328;2023-11-21T03:10:04;8.35;;;2.67;;
70549;SDS011;58101;48.658;2.328;2023-11-21T03:12:34;10.43;;;2.63;;
70549;SDS011;58101;48.658;2.328;2023-11-21T03:14:59;10.80;;;3.08;;
70549;SDS011;58101;48.658;2.328;2023-11-21T03:17:26;8.70;;;2.78;;
70549;SDS011;58101;48.658;2.328;2023-11-21T03:19:52;9.88;;;2.88;;
70549;SDS011;58101;48.658;2.328;2023-11-21T03:22:18;10.07;;;2.72;;
70549;SDS011;58101;48.658;2.328;2023-11-21T03:24:44;11.27;;;2.70;;
70549;SDS011;58101;48.658;2.328;2023-11-21T03:27:09;10.55;;;2.55;;
70549;SDS011;58101;48.658;2.328;2023-11-21T03:29:35;7.55;;;2.30;;
70549;SDS011;58101;48.658;2.328;2023-11-21T03:32:01;10.73;;;2.25;;
70549;SDS011;58101;48.658;2.328;2023-11-21T03:34:27;8.50;;;2.30;;
70549;SDS011;58101;48.658;2.328;2023-11-21T03:36:53;8.95;;;2.20;;
70549;SDS011;58101;48.658;2.328;2023-11-21T03:39:19;10.43;;;2.35;;
70549;SDS011;58101;48.658;2.328;2023-11-21T03:44:11;14.60;;;2.38;;
70549;SDS011;58101;48.658;2.328;2023-11-21T03:46:37;10.82;;;2.10;;
70549;SDS011;58101;48.658;2.328;2023-11-21T03:49:03;8.00;;;2.10;;
70549;SDS011;58101;48.658;2.328;2023-11-21T03:51:29;12.10;;;2.35;;
70549;SDS011;58101;48.658;2.328;2023-11-21T03:53:54;9.55;;;1.90;;
70549;SDS011;58101;48.658;2.328;2023-11-21T03:56:20;7.78;;;1.88;;
70549;SDS011;58101;48.658;2.328;2023-11-21T03:58:48;6.28;;;1.88;;
70549;SDS011;58101;48.658;2.328;2023-11-21T04:01:21;9.52;;;1.90;;
70549;SDS011;58101;48.658;2.328;2023-11-21T04:03:47;9.13;;;2.03;;
70549;SDS011;58101;48.658;2.328;2023-11-21T04:06:14;7.07;;;1.80;;
70549;SDS011;58101;48.658;2.328;2023-11-21T04:08:39;6.80;;;1.98;;
70549;SDS011;58101;48.658;2.328;2023-11-21T04:11:05;8.40;;;2.13;;
70549;SDS011;58101;48.658;2.328;2023-11-21T04:13:30;6.82;;;2.08;;
70549;SDS011;58101;48.658;2.328;2023-11-21T04:15:56;7.55;;;2.13;;
70549;SDS011;58101;48.658;2.328;2023-11-21T04:18:22;9.07;;;2.13;;
70549;SDS011;58101;48.658;2.328;2023-11-21T04:20:50;7.55;;;1.92;;
70549;SDS011;58101;48.658;2.328;2023-11-21T04:23:16;9.40;;;2.10;;
70549;SDS011;58101;48.658;2.328;2023-11-21T04:25:41;10.27;;;2.60;;
70549;SDS011;58101;48.658;2.328;2023-11-21T04:28:08;8.50;;;2.03;;
70549;SDS011;58101;48.658;2.328;2023-11-21T04:30:33;8.90;;;2.00;;
70549;SDS011;58101;48.658;2.328;2023-11-21T04:32:59;10.25;;;2.65;;
70549;SDS011;58101;48.658;2.328;2023-11-21T04:35:24;8.73;;;1.80;;
70549;SDS011;58101;48.658;2.328;2023-11-21T04:37:50;7.47;;;2.00;;
70549;SDS011;58101;48.658;2.328;2023-11-21T04:40:16;8.27;;;2.03;;
70549;SDS011;58101;48.658;2.328;2023-11-21T04:42:42;7.47;;;1.90;;
70549;SDS011;58101;48.658;2.328;2023-11-21T04:45:07;6.72;;;1.77;;
70549;SDS011;58101;48.658;2.328;2023-11-21T04:47:34;10.13;;;2.50;;
70549;SDS011;58101;48.658;2.328;2023-11-21T04:50:01;10.70;;;2.17;;
70549;SDS011;58101;48.658;2.328;2023-11-21T04:52:28;7.10;;;2.00;;
70549;SDS011;58101;48.658;2.328;2023-11-21T04:54:54;8.75;;;2.15;;
70549;SDS011;58101;48.658;2.328;2023-11-21T04:57:22;8.05;;;2.45;;
70549;SDS011;58101;48.658;2.328;2023-11-21T04:59:51;8.77;;;2.35;;
70549;SDS011;58101;48.658;2.328;2023-11-21T05:02:16;9.23;;;2.53;;
70549;SDS011;58101;48.658;2.328;2023-11-21T05:04:44;9.35;;;2.20;;
70549;SDS011;58101;48.658;2.328;2023-11-21T05:07:10;11.38;;;2.20;;
70549;SDS011;58101;48.658;2.328;2023-11-21T05:09:35;8.35;;;2.10;;
70549;SDS011;58101;48.658;2.328;2023-11-21T05:12:01;8.57;;;2.30;;
70549;SDS011;58101;48.658;2.328;2023-11-21T05:14:28;10.60;;;2.35;;
70549;SDS011;58101;48.658;2.328;2023-11-21T05:16:54;6.85;;;2.10;;
70549;SDS011;58101;48.658;2.328;2023-11-21T05:19:19;11.13;;;2.40;;
70549;SDS011;58101;48.658;2.328;2023-11-21T05:21:46;8.73;;;2.28;;
70549;SDS011;58101;48.658;2.328;2023-11-21T05:24:12;9.88;;;2.55;;
70549;SDS011;58101;48.658;2.328;2023-11-21T05:26:37;8.38;;;2.20;;
70549;SDS011;58101;48.658;2.328;2023-11-21T05:29:03;7.80;;;2.33;;
70549;SDS011;58101;48.658;2.328;2023-11-21T05:31:29;8.73;;;2.45;;
70549;SDS011;58101;48.658;2.328;2023-11-21T05:33:55;8.70;;;2.65;;
70549;SDS011;58101;48.658;2.328;2023-11-21T05:36:21;10.40;;;2.60;;
70549;SDS011;58101;48.658;2.328;2023-11-21T05:38:46;7.18;;;2.15;;
70549;SDS011;58101;48.658;2.328;2023-11-21T05:41:12;9.57;;;2.55;;
70549;SDS011;58101;48.658;2.328;2023-11-21T05:43:38;9.90;;;2.72;;
70549;SDS011;58101;48.658;2.328;2023-11-21T05:46:04;10.73;;;2.60;;
70549;SDS011;58101;48.658;2.328;2023-11-21T05:48:32;7.65;;;2.75;;
70549;SDS011;58101;48.658;2.328;2023-11-21T05:50:57;9.82;;;2.90;;
70549;SDS011;58101;48.658;2.328;2023-11-21T05:53:24;9.65;;;2.42;;
70549;SDS011;58101;48.658;2.328;2023-11-21T05:55:50;8.18;;;2.72;;
70549;SDS011;58101;48.658;2.328;2023-11-21T05:58:15;7.95;;;2.60;;
70549;SDS011;58101;48.658;2.328;2023-11-21T06:00:41;8.52;;;2.53;;
70549;SDS011;58101;48.658;2.328;2023-11-21T06:03:07;8.35;;;2.67;;
70549;SDS011;58101;48.658;2.328;2023-11-21T06:05:33;7.68;;;2.28;;
70549;SDS011;58101;48.658;2.328;2023-11-21T06:07:58;8.57;;;2.38;;
70549;SDS011;58101;48.658;2.328;2023-11-21T06:12:51;9.45;;;2.40;;
70549;SDS011;58101;48.658;2.328;2023-11-21T06:15:17;8.18;;;2.05;;
70549;SDS011;58101;48.658;2.328;2023-11-21T06:17:45;6.13;;;2.13;;
70549;SDS011;58101;48.658;2.328;2023-11-21T06:20:17;6.10;;;2.05;;
70549;SDS011;58101;48.658;2.328;2023-11-21T06:22:49;8.85;;;2.28;;
70549;SDS011;58101;48.658;2.328;2023-11-21T06:25:15;9.18;;;2.40;;
70549;SDS011;58101;48.658;2.328;2023-11-21T06:27:43;6.60;;;2.28;;
70549;SDS011;58101;48.658;2.328;2023-11-21T06:30:10;10.32;;;2.50;;
70549;SDS011;58101;48.658;2.328;2023-11-21T06:32:37;5.85;;;2.20;;
70549;SDS011;58101;48.658;2.328;2023-11-21T06:35:03;6.75;;;2.58;;
70549;SDS011;58101;48.658;2.328;2023-11-21T06:37:30;6.82;;;2.28;;
70549;SDS011;58101;48.658;2.328;2023-11-21T06:39:57;7.07;;;2.40;;
70549;SDS011;58101;48.658;2.328;2023-11-21T06:42:23;6.78;;;2.30;;
70549;SDS011;58101;48.658;2.328;2023-11-21T06:44:50;6.85;;;2.20;;
70549;SDS011;58101;48.658;2.328;2023-11-21T06:47:19;8.93;;;2.38;;
70549;SDS011;58101;48.658;2.328;2023-11-21T06:49:51;11.15;;;2.35;;
70549;SDS011;58101;48.658;2.328;2023-11-21T06:52:18;5.75;;;2.10;;
70549;SDS011;58101;48.658;2.328;2023-11-21T06:54:44;7.25;;;2.47;;
70549;SDS011;58101;48.658;2.328;2023-11-21T06:57:10;6.07;;;2.10;;
70549;SDS011;58101;48.658;2.328;2023-11-21T06:59:36;7.28;;;2.17;;
70549;SDS011;58101;48.658;2.328;2023-11-21T07:02:02;7.32;;;2.38;;
70549;SDS011;58101;48.658;2.328;2023-11-21T07:04:29;6.50;;;2.33;;
70549;SDS011;58101;48.658;2.328;2023-11-21T07:06:55;9.98;;;2.60;;
70549;SDS011;58101;48.658;2.328;2023-11-21T07:09:21;6.95;;;2.65;;
70549;SDS011;58101;48.658;2.328;2023-11-21T07:11:47;8.18;;;2.60;;
70549;SDS011;58101;48.658;2.328;2023-11-21T07:14:14;9.45;;;3.10;;
70549;SDS011;58101;48.658;2.328;2023-11-21T07:16:40;8.45;;;3.17;;
70549;SDS011;58101;48.658;2.328;2023-11-21T07:19:06;7.93;;;2.97;;
70549;SDS011;58101;48.658;2.328;2023-11-21T07:21:35;9.23;;;3.20;;
70549;SDS011;58101;48.658;2.328;2023-11-21T07:24:01;8.18;;;3.40;;
70549;SDS011;58101;48.658;2.328;2023-11-21T07:26:28;8.82;;;3.75;;
70549;SDS011;58101;48.658;2.328;2023-11-21T07:28:54;8.35;;;3.70;;
70549;SDS011;58101;48.658;2.328;2023-11-21T07:31:20;7.95;;;3.67;;
70549;SDS011;58101;48.658;2.328;2023-11-21T07:33:47;8.32;;;3.83;;
70549;SDS011;58101;48.658;2.328;2023-11-21T07:36:13;7.90;;;3.70;;
70549;SDS011;58101;48.658;2.328;2023-11-21T07:38:48;7.90;;;3.28;;
70549;SDS011;58101;48.658;2.328;2023-11-21T07:41:15;7.13;;;2.95;;
70549;SDS011;58101;48.658;2.328;2023-11-21T07:43:41;7.75;;;2.72;;
70549;SDS011;58101;48.658;2.328;2023-11-21T07:46:07;7.72;;;2.70;;
70549;SDS011;58101;48.658;2.328;2023-11-21T07:48:33;10.38;;;3.90;;
70549;SDS011;58101;48.658;2.328;2023-11-21T07:50:59;10.45;;;4.57;;
70549;SDS011;58101;48.658;2.328;2023-11-21T07:53:26;8.10;;;3.40;;
70549;SDS011;58101;48.658;2.328;2023-11-21T07:55:54;8.18;;;2.90;;
70549;SDS011;58101;48.658;2.328;2023-11-21T07:58:20;7.05;;;2.92;;
70549;SDS011;58101;48.658;2.328;2023-11-21T08:00:46;9.50;;;3.22;;
70549;SDS011;58101;48.658;2.328;2023-11-21T08:03:13;9.02;;;3.25;;
70549;SDS011;58101;48.658;2.328;2023-11-21T08:10:30;8.95;;;3.30;;
70549;SDS011;58101;48.658;2.328;2023-11-21T08:12:55;9.25;;;3.35;;
70549;SDS011;58101;48.658;2.328;2023-11-21T08:15:21;9.43;;;3.90;;
70549;SDS011;58101;48.658;2.328;2023-11-21T08:17:47;11.88;;;4.18;;
70549;SDS011;58101;48.658;2.328;2023-11-21T08:20:13;11.93;;;4.28;;
70549;SDS011;58101;48.658;2.328;2023-11-21T08:22:41;11.65;;;4.10;;
70549;SDS011;58101;48.658;2.328;2023-11-21T08:25:07;9.70;;;4.18;;
70549;SDS011;58101;48.658;2.328;2023-11-21T08:27:34;10.38;;;4.15;;
70549;SDS011;58101;48.658;2.328;2023-11-21T08:30:00;8.95;;;3.90;;
70549;SDS011;58101;48.658;2.328;2023-11-21T08:32:25;10.70;;;4.00;;
70549;SDS011;58101;48.658;2.328;2023-11-21T08:34:51;11.27;;;4.07;;
70549;SDS011;58101;48.658;2.328;2023-11-21T08:37:17;12.13;;;4.25;;
70549;SDS011;58101;48.658;2.328;2023-11-21T08:39:47;13.70;;;4.70;;
70549;SDS011;58101;48.658;2.328;2023-11-21T08:42:13;11.13;;;4.60;;
70549;SDS011;58101;48.658;2.328;2023-11-21T08:44:39;14.23;;;4.97;;
70549;SDS011;58101;48.658;2.328;2023-11-21T08:47:05;14.25;;;5.68;;
70549;SDS011;58101;48.658;2.328;2023-11-21T08:49:31;12.90;;;5.30;;
70549;SDS011;58101;48.658;2.328;2023-11-21T08:51:57;13.45;;;5.53;;
70549;SDS011;58101;48.658;2.328;2023-11-21T08:54:24;13.85;;;5.85;;
70549;SDS011;58101;48.658;2.328;2023-11-21T08:56:51;13.50;;;5.65;;
70549;SDS011;58101;48.658;2.328;2023-11-21T08:59:20;14.18;;;5.80;;
70549;SDS011;58101;48.658;2.328;2023-11-21T09:01:46;13.35;;;5.47;;
70549;SDS011;58101;48.658;2.328;2023-11-21T09:04:12;13.85;;;5.93;;
70549;SDS011;58101;48.658;2.328;2023-11-21T09:06:38;26.40;;;11.02;;
70549;SDS011;58101;48.658;2.328;2023-11-21T09:09:04;33.83;;;14.02;;
70549;SDS011;58101;48.658;2.328;2023-11-21T09:11:31;27.17;;;11.02;;
70549;SDS011;58101;48.658;2.328;2023-11-21T09:13:59;23.42;;;9.20;;
70549;SDS011;58101;48.658;2.328;2023-11-21T09:16:24;15.35;;;6.20;;
70549;SDS011;58101;48.658;2.328;2023-11-21T09:18:50;17.17;;;6.72;;
70549;SDS011;58101;48.658;2.328;2023-11-21T09:21:16;17.60;;;6.75;;
70549;SDS011;58101;48.658;2.328;2023-11-21T09:23:43;16.38;;;7.03;;
70549;SDS011;58101;48.658;2.328;2023-11-21T09:26:09;16.45;;;6.03;;
70549;SDS011;58101;48.658;2.328;2023-11-21T09:28:35;13.68;;;5.97;;
70549;SDS011;58101;48.658;2.328;2023-11-21T09:31:03;15.15;;;6.50;;
70549;SDS011;58101;48.658;2.328;2023-11-21T09:33:29;14.35;;;5.80;;
70549;SDS011;58101;48.658;2.328;2023-11-21T09:35:56;15.85;;;5.53;;
70549;SDS011;58101;48.658;2.328;2023-11-21T09:38:22;14.75;;;5.47;;
70549;SDS011;58101;48.658;2.328;2023-11-21T09:40:48;14.35;;;5.65;;
70549;SDS011;58101;48.658;2.328;2023-11-21T09:43:18;18.95;;;7.47;;
70549;SDS011;58101;48.658;2.328;2023-11-21T09:45:48;14.90;;;5.35;;
70549;SDS011;58101;48.658;2.328;2023-11-21T09:48:21;23.73;;;8.18;;
70549;SDS011;58101;48.658;2.328;2023-11-21T09:50:49;21.52;;;8.32;;
70549;SDS011;58101;48.658;2.328;2023-11-21T09:53:18;19.98;;;7.07;;
70549;SDS011;58101;48.658;2.328;2023-11-21T09:55:50;15.15;;;5.97;;
70549;SDS011;58101;48.658;2.328;2023-11-21T09:58:17;15.65;;;6.13;;
70549;SDS011;58101;48.658;2.328;2023-11-21T10:00:45;18.17;;;6.68;;
70549;SDS011;58101;48.658;2.328;2023-11-21T10:03:12;19.95;;;7.28;;
70549;SDS011;58101;48.658;2.328;2023-11-21T10:05:38;21.35;;;7.38;;
70549;SDS011;58101;48.658;2.328;2023-11-21T10:08:06;16.02;;;5.95;;
70549;SDS011;58101;48.658;2.328;2023-11-21T10:10:33;18.02;;;6.30;;
70549;SDS011;58101;48.658;2.328;2023-11-21T10:13:01;14.75;;;5.50;;
70549;SDS011;58101;48.658;2.328;2023-11-21T10:15:31;17.67;;;5.20;;
70549;SDS011;58101;48.658;2.328;2023-11-21T10:17:59;17.10;;;6.07;;
70549;SDS011;58101;48.658;2.328;2023-11-21T10:20:27;12.05;;;4.32;;
70549;SDS011;58101;48.658;2.328;2023-11-21T10:22:54;11.00;;;4.22;;
70549;SDS011;58101;48.658;2.328;2023-11-21T10:25:21;18.73;;;5.93;;
70549;SDS011;58101;48.658;2.328;2023-11-21T10:27:48;8.65;;;3.03;;
70549;SDS011;58101;48.658;2.328;2023-11-21T10:30:17;10.32;;;3.65;;
70549;SDS011;58101;48.658;2.328;2023-11-21T10:32:43;12.00;;;4.30;;
70549;SDS011;58101;48.658;2.328;2023-11-21T10:35:09;12.77;;;4.30;;
70549;SDS011;58101;48.658;2.328;2023-11-21T10:37:44;13.27;;;5.10;;
70549;SDS011;58101;48.658;2.328;2023-11-21T10:40:27;9.38;;;3.03;;
70549;SDS011;58101;48.658;2.328;2023-11-21T10:42:54;11.80;;;3.40;;
70549;SDS011;58101;48.658;2.328;2023-11-21T10:45:23;9.02;;;2.90;;
70549;SDS011;58101;48.658;2.328;2023-11-21T10:47:48;12.63;;;3.80;;
70549;SDS011;58101;48.658;2.328;2023-11-21T10:50:18;16.23;;;4.35;;
70549;SDS011;58101;48.658;2.328;2023-11-21T10:52:44;22.73;;;5.95;;
70549;SDS011;58101;48.658;2.328;2023-11-21T10:55:19;19.83;;;4.78;;
70549;SDS011;58101;48.658;2.328;2023-11-21T10:57:51;17.90;;;4.50;;
70549;SDS011;58101;48.658;2.328;2023-11-21T11:00:18;8.32;;;2.88;;
70549;SDS011;58101;48.658;2.328;2023-11-21T11:02:46;11.32;;;3.47;;
70549;SDS011;58101;48.658;2.328;2023-11-21T11:05:19;10.50;;;3.30;;
70549;SDS011;58101;48.658;2.328;2023-11-21T11:07:47;9.98;;;3.33;;
70549;SDS011;58101;48.658;2.328;2023-11-21T11:10:17;8.57;;;3.08;;
70549;SDS011;58101;48.658;2.328;2023-11-21T11:12:46;9.25;;;2.78;;
70549;SDS011;58101;48.658;2.328;2023-11-21T11:15:12;6.95;;;2.13;;
70549;SDS011;58101;48.658;2.328;2023-11-21T11:17:39;9.18;;;2.78;;
70549;SDS011;58101;48.658;2.328;2023-11-21T11:20:05;10.57;;;4.05;;
70549;SDS011;58101;48.658;2.328;2023-11-21T11:22:47;10.00;;;3.33;;
70549;SDS011;58101;48.658;2.328;2023-11-21T11:36:18;6.60;;;2.30;;
70549;SDS011;58101;48.658;2.328;2023-11-21T11:38:56;8.02;;;2.40;;
70549;SDS011;58101;48.658;2.328;2023-11-21T11:41:25;9.90;;;3.10;;
70549;SDS011;58101;48.658;2.328;2023-11-21T11:43:52;7.10;;;2.20;;
70549;SDS011;58101;48.658;2.328;2023-11-21T11:48:46;6.25;;;1.88;;
70549;SDS011;58101;48.658;2.328;2023-11-21T11:51:14;5.45;;;1.70;;
70549;SDS011;58101;48.658;2.328;2023-11-21T11:53:42;10.45;;;3.28;;
70549;SDS011;58101;48.658;2.328;2023-11-21T11:56:28;6.63;;;2.22;;
70549;SDS011;58101;48.658;2.328;2023-11-21T11:58:57;7.25;;;1.85;;
70549;SDS011;58101;48.658;2.328;2023-11-21T12:01:25;6.05;;;1.75;;
70549;SDS011;58101;48.658;2.328;2023-11-21T12:04:36;4.85;;;1.52;;
70549;SDS011;58101;48.658;2.328;2023-11-21T12:06:59;8.32;;;2.85;;
70549;SDS011;58101;48.658;2.328;2023-11-21T12:09:28;6.47;;;2.00;;
70549;SDS011;58101;48.658;2.328;2023-11-21T12:11:55;5.57;;;1.70;;
70549;SDS011;58101;48.658;2.328;2023-11-21T12:14:25;6.00;;;1.95;;
70549;SDS011;58101;48.658;2.328;2023-11-21T12:16:50;5.63;;;1.60;;
70549;SDS011;58101;48.658;2.328;2023-11-21T12:19:17;5.72;;;1.60;;
70549;SDS011;58101;48.658;2.328;2023-11-21T12:21:43;5.32;;;1.60;;
70549;SDS011;58101;48.658;2.328;2023-11-21T12:24:13;7.10;;;1.65;;
70549;SDS011;58101;48.658;2.328;2023-11-21T12:26:39;7.00;;;1.70;;
70549;SDS011;58101;48.658;2.328;2023-11-21T12:29:07;6.15;;;1.67;;
70549;SDS011;58101;48.658;2.328;2023-11-21T12:31:33;7.53;;;2.10;;
70549;SDS011;58101;48.658;2.328;2023-11-21T12:34:02;7.90;;;2.63;;
70549;SDS011;58101;48.658;2.328;2023-11-21T12:36:29;6.90;;;2.40;;
70549;SDS011;58101;48.658;2.328;2023-11-21T12:38:55;7.55;;;2.40;;
70549;SDS011;58101;48.658;2.328;2023-11-21T12:41:21;6.93;;;2.33;;
70549;SDS011;58101;48.658;2.328;2023-11-21T12:43:47;7.47;;;1.90;;
70549;SDS011;58101;48.658;2.328;2023-11-21T12:46:13;7.28;;;2.10;;
70549;SDS011;58101;48.658;2.328;2023-11-21T12:48:43;6.82;;;2.50;;
70549;SDS011;58101;48.658;2.328;2023-11-21T12:51:10;6.85;;;2.10;;
70549;SDS011;58101;48.658;2.328;2023-11-21T12:53:37;6.30;;;2.08;;
70549;SDS011;58101;48.658;2.328;2023-11-21T12:56:21;5.85;;;1.90;;
70549;SDS011;58101;48.658;2.328;2023-11-21T12:58:50;5.70;;;1.83;;
70549;SDS011;58101;48.658;2.328;2023-11-21T13:01:19;5.45;;;1.85;;
70549;SDS011;58101;48.658;2.328;2023-11-21T13:03:47;6.95;;;1.80;;
70549;SDS011;58101;48.658;2.328;2023-11-21T13:06:16;5.35;;;1.70;;
70549;SDS011;58101;48.658;2.328;2023-11-21T13:08:43;5.90;;;1.80;;
70549;SDS011;58101;48.658;2.328;2023-11-21T13:13:35;5.55;;;1.50;;
70549;SDS011;58101;48.658;2.328;2023-11-21T13:16:01;5.38;;;1.60;;
70549;SDS011;58101;48.658;2.328;2023-11-21T13:18:30;7.10;;;1.70;;
70549;SDS011;58101;48.658;2.328;2023-11-21T13:20:57;7.47;;;1.80;;
70549;SDS011;58101;48.658;2.328;2023-11-21T13:23:25;6.22;;;1.40;;
70549;SDS011;58101;48.658;2.328;2023-11-21T13:25:51;5.32;;;1.60;;
70549;SDS011;58101;48.658;2.328;2023-11-21T13:28:18;7.15;;;1.95;;
70549;SDS011;58101;48.658;2.328;2023-11-21T13:30:46;5.38;;;1.65;;
70549;SDS011;58101;48.658;2.328;2023-11-21T13:35:43;7.72;;;1.90;;
70549;SDS011;58101;48.658;2.328;2023-11-21T13:38:14;5.78;;;2.03;;
70549;SDS011;58101;48.658;2.328;2023-11-21T13:40:50;6.18;;;2.05;;
70549;SDS011;58101;48.658;2.328;2023-11-21T13:43:19;5.90;;;2.17;;
70549;SDS011;58101;48.658;2.328;2023-11-21T13:45:48;6.85;;;2.10;;
70549;SDS011;58101;48.658;2.328;2023-11-21T13:48:27;6.53;;;2.20;;
70549;SDS011;58101;48.658;2.328;2023-11-21T13:50:59;7.95;;;2.20;;
70549;SDS011;58101;48.658;2.328;2023-11-21T13:53:33;7.05;;;2.15;;
70549;SDS011;58101;48.658;2.328;2023-11-21T13:56:02;6.00;;;2.25;;
70549;SDS011;58101;48.658;2.328;2023-11-21T13:58:28;5.90;;;2.22;;
70549;SDS011;58101;48.658;2.328;2023-11-21T14:01:08;7.00;;;2.38;;
70549;SDS011;58101;48.658;2.328;2023-11-21T14:03:54;7.57;;;2.45;;
70549;SDS011;58101;48.658;2.328;2023-11-21T14:06:26;8.38;;;2.30;;
70549;SDS011;58101;48.658;2.328;2023-11-21T14:08:59;6.80;;;2.05;;
70549;SDS011;58101;48.658;2.328;2023-11-21T14:11:30;6.10;;;2.00;;
70549;SDS011;58101;48.658;2.328;2023-11-21T14:13:56;6.25;;;2.20;;
70549;SDS011;58101;48.658;2.328;2023-11-21T14:16:24;6.70;;;2.00;;
70549;SDS011;58101;48.658;2.328;2023-11-21T14:18:49;5.55;;;1.67;;
70549;SDS011;58101;48.658;2.328;2023-11-21T14:21:22;6.55;;;1.70;;
70549;SDS011;58101;48.658;2.328;2023-11-21T14:23:48;5.25;;;1.65;;
70549;SDS011;58101;48.658;2.328;2023-11-21T14:26:14;5.80;;;1.50;;
70549;SDS011;58101;48.658;2.328;2023-11-21T14:28:41;6.05;;;1.60;;
70549;SDS011;58101;48.658;2.328;2023-11-21T14:31:07;5.65;;;1.50;;
70549;SDS011;58101;48.658;2.328;2023-11-21T14:33:38;16.73;;;2.10;;
70549;SDS011;58101;48.658;2.328;2023-11-21T14:36:04;6.00;;;1.65;;
70549;SDS011;58101;48.658;2.328;2023-11-21T14:38:33;5.55;;;1.73;;
70549;SDS011;58101;48.658;2.328;2023-11-21T14:40:58;6.60;;;2.03;;
70549;SDS011;58101;48.658;2.328;2023-11-21T14:43:24;6.70;;;1.80;;
70549;SDS011;58101;48.658;2.328;2023-11-21T14:45:50;5.50;;;1.80;;
70549;SDS011;58101;48.658;2.328;2023-11-21T14:48:16;6.20;;;1.70;;
70549;SDS011;58101;48.658;2.328;2023-11-21T14:50:51;6.13;;;1.95;;
70549;SDS011;58101;48.658;2.328;2023-11-21T14:53:37;5.85;;;2.10;;
70549;SDS011;58101;48.658;2.328;2023-11-21T14:56:18;6.32;;;2.15;;
70549;SDS011;58101;48.658;2.328;2023-11-21T14:58:58;6.38;;;1.80;;
70549;SDS011;58101;48.658;2.328;2023-11-21T15:01:41;8.45;;;1.90;;
70549;SDS011;58101;48.658;2.328;2023-11-21T15:04:33;7.10;;;2.05;;
70549;SDS011;58101;48.658;2.328;2023-11-21T15:07:02;6.00;;;1.90;;
70549;SDS011;58101;48.658;2.328;2023-11-21T15:09:29;6.35;;;1.80;;
70549;SDS011;58101;48.658;2.328;2023-11-21T15:11:57;5.88;;;1.80;;
70549;SDS011;58101;48.658;2.328;2023-11-21T15:14:49;6.97;;;2.10;;
70549;SDS011;58101;48.658;2.328;2023-11-21T15:17:19;8.05;;;2.10;;
70549;SDS011;58101;48.658;2.328;2023-11-21T15:19:50;6.63;;;2.13;;
70549;SDS011;58101;48.658;2.328;2023-11-21T15:22:17;6.50;;;2.03;;